Aviation Digital Data Service (ADDS)

Output produced by METARs form (1525 UTC 22 July 2014)
found at http://www.aviationweather.gov/adds/metars/
 
KSAV 221453Z 32004KT 10SM BKN019 28/22 A3011 RMK AO2 SLP194 T02780222 50001